• Join FlightAware (Why Join?)
  • Login
  • US Flag 
08:18AM EST


 

Airport Tracker/Info


-or-


 

Live Flight TrackerFlight Track Log ✈ N550UZ ✈ 19-Jul-2014 ✈ KRDU - KOPF

Flight Track Log - Related Links

Times and Time Zones

All times are in EDT time to prevent confusion due to time zone crossing. See the N550UZ flight status page for this flight to view local times or setup timezone preferences in your user account.

Time Position Orientation Groundspeed Altitude Reporting Facility
EDT Latitude Longitude Course Direction KTS MPH feet Rate Location/Type
10:25AM 35.9208 -78.7339 40° Northeast 184 212 3,500  Level Washington Center
10:25AM 35.9194 -78.7083 94° East 199 229 4,300 1,860 Climbing Washington Center
10:26AM 35.8808 -78.6683 140° Southeast 170 196 6,300 1,860 Climbing Washington Center
10:27AM 35.8281 -78.6892 198° South 154 177 8,200 1,800 Climbing Washington Center
10:28AM 35.7775 -78.7128 201° Southwest 168 193 10,000 1,620 Climbing Washington Center
10:29AM 35.7269 -78.7314 197° South 187 215 11,500 1,440 Climbing Washington Center
10:30AM 35.6742 -78.7497 196° South 192 221 12,900 1,320 Climbing Washington Center
10:31AM 35.6222 -78.7453 176° South 197 227 14,200 1,260 Climbing Washington Center
10:32AM 35.5578 -78.7297 169° South 209 241 15,500 1,260 Climbing Washington Center
10:33AM 35.4975 -78.7225 174° South 219 252 16,700 1,080 Climbing Washington Center
10:34AM 35.4394 -78.7125 172° South 224 258 17,700 840 Climbing Washington Center
10:35AM 35.3750 -78.7022 173° South 224 258 18,500 780 Climbing Washington Center
10:36AM 35.3169 -78.6900 170° South 229 264 19,300 960 Climbing Washington Center
10:37AM 35.2525 -78.6797 173° South 234 269 20,400 960 Climbing Washington Center
10:38AM 35.1922 -78.6672 170° South 234 269 21,300 900 Climbing Washington Center
10:39AM 35.1278 -78.6572 173° South 234 269 22,300 900 Climbing Washington Center
10:40AM 35.0633 -78.6472 173° South 239 275 23,200 960 Climbing Washington Center
10:41AM 35.0011 -78.6347 171° South 239 275 24,200 960 Climbing Washington Center
10:42AM 34.9422 -78.6503 192° South 231 266 25,200 960 Climbing Washington Center
10:43AM 34.8892 -78.6886 211° Southwest 214 246 26,200 900 Climbing Washington Center
10:44AM 34.8358 -78.7272 211° Southwest 219 252 27,100 720 Climbing Washington Center
10:46AM 34.7275 -78.8006 209° Southwest 220 253 28,500 720 Climbing Jacksonville Center
10:47AM 34.6725 -78.8383 209° Southwest 220 253 29,300 660 Climbing Jacksonville Center
10:48AM 34.6172 -78.8739 208° Southwest 220 253 29,900 600 Climbing Jacksonville Center
10:49AM 34.5603 -78.9144 210° Southwest 225 259 30,600 720 Climbing Jacksonville Center
10:50AM 34.4992 -78.9650 214° Southwest 232 267 31,400 660 Climbing Jacksonville Center
10:51AM 34.4461 -79.0025 210° Southwest 237 273 32,000 300 Climbing Jacksonville Center
10:52AM 34.3828 -79.0458 209° Southwest 245 282 32,000 300 Level Jacksonville Center
10:53AM 34.3281 -79.0983 218° Southwest 257 296 32,700 720 Climbing Jacksonville Center
10:54AM 34.2756 -79.1536 221° Southwest 257 296 33,500 720 Climbing Jacksonville Center
10:55AM 34.2247 -79.2058 220° Southwest 251 289 34,200 720 Climbing Jacksonville Center
10:56AM 34.1761 -79.2531 219° Southwest 245 282 35,000 600 Climbing Jacksonville Center
10:57AM 34.1253 -79.3003 218° Southwest 239 275 35,500 480 Climbing Jacksonville Center
10:58AM 34.0744 -79.3450 216° Southwest 239 275 36,000 240 Climbing Jacksonville Center
10:59AM 34.0108 -79.3828 206° Southwest 244 281 36,000  Level Jacksonville Center
11:00AM 33.9411 -79.4231 206° Southwest 260 299 36,000  Level Jacksonville Center
11:01AM 33.8797 -79.4656 210° Southwest 260 299 36,000  Level Jacksonville Center
11:02AM 33.8119 -79.5158 212° Southwest 271 312 36,000  Level Jacksonville Center
11:03AM 33.7489 -79.5731 217° Southwest 287 330 36,000  Level Jacksonville Center
11:04AM 33.6858 -79.6353 219° Southwest 292 336 36,000  Level Jacksonville Center
11:05AM 33.6247 -79.6975 220° Southwest 292 336 36,000  Level Jacksonville Center
11:06AM 33.5617 -79.7594 219° Southwest 298 343 36,000  Level Jacksonville Center
11:07AM 33.4964 -79.8217 218° Southwest 298 343 36,000  Level Jacksonville Center
11:08AM 33.4247 -79.8739 211° Southwest 298 343 36,000  Level Jacksonville Center
11:09AM 33.3506 -79.9186 207° Southwest 298 343 36,000  Level Jacksonville Center
11:10AM 33.2767 -79.9658 208° Southwest 303 349 36,000  Level Jacksonville Center
11:11AM 33.2044 -80.0103 207° Southwest 303 349 36,000  Level Jacksonville Center
11:12AM 33.1283 -80.0550 206° Southwest 303 349 36,000  Level Jacksonville Center
11:13AM 33.0647 -80.1017 212° Southwest 309 356 36,000  Level Jacksonville Center
11:14AM 32.9822 -80.1536 208° Southwest 314 361 36,000  Level Jacksonville Center
11:15AM 32.9081 -80.1956 205° Southwest 331 381 36,000  Level Jacksonville Center
11:16AM 32.8278 -80.2500 210° Southwest 324 373 36,000  Level Jacksonville Center
11:17AM 32.7536 -80.2964 208° Southwest 312 359 36,000  Level Jacksonville Center
11:18AM 32.6794 -80.3431 208° Southwest 312 359 36,000  Level Jacksonville Center
11:19AM 32.6033 -80.3922 209° Southwest 306 352 36,000  Level Jacksonville Center
11:20AM 32.5269 -80.4386 207° Southwest 306 352 36,000  Level Jacksonville Center
11:21AM 32.4481 -80.4703 199° South 306 352 36,000  Level Jacksonville Center
11:22AM 32.3564 -80.4678 179° South 306 352 36,000  Level Jacksonville Center
11:23AM 32.2689 -80.4775 185° South 318 366 36,000  Level Jacksonville Center
11:24AM 32.1858 -80.5114 199° South 318 366 36,000  Level Jacksonville Center
11:25AM 32.1092 -80.5453 201° Southwest 304 350 36,000  Level Jacksonville Center
11:26AM 32.0181 -80.5844 200° South 314 361 36,000  Level Jacksonville Center
11:27AM 31.9375 -80.6208 201° Southwest 314 361 36,000  Level Jacksonville Center
11:28AM 31.8608 -80.6519 199° South 319 367 36,000  Level Jacksonville Center
11:29AM 31.7694 -80.6883 199° South 319 367 36,000  Level Jacksonville Center
11:30AM 31.6867 -80.7222 199° South 325 374 36,000  Level Jacksonville Center
11:31AM 31.6119 -80.7531 199° South 320 368 36,000  Level Jacksonville Center
11:32AM 31.5208 -80.7917 200° South 320 368 36,000  Level Jacksonville Center
11:33AM 31.4461 -80.8228 200° South 325 374 36,000  Level Jacksonville Center
11:34AM 31.3547 -80.8611 200° South 325 374 36,000  Level Jacksonville Center
11:35AM 31.2719 -80.8994 202° Southwest 325 374 36,000  Level Jacksonville Center
11:36AM 31.1867 -80.9306 197° South 325 374 36,000  Level Jacksonville Center
11:37AM 31.1039 -80.9661 200° South 325 374 36,000  Level Jacksonville Center
11:38AM 31.0186 -80.9994 199° South 325 374 36,000  Level Jacksonville Center
11:39AM 30.9378 -81.0350 201° Southwest 325 374 36,000  Level Jacksonville Center
11:40AM 30.8506 -81.0681 198° South 325 374 36,000  Level Jacksonville Center
11:41AM 30.7675 -81.1011 199° South 325 374 36,000  Level Jacksonville Center
11:42AM 30.6825 -81.1364 200° South 325 374 36,000  Level Jacksonville Center
11:43AM 30.5950 -81.1550 190° South 325 374 36,000  Level Jacksonville Center
11:44AM 30.4989 -81.1494 177° South 325 374 36,000  Level Jacksonville Center
11:45AM 30.4069 -81.1464 178° South 331 381 36,000  Level Jacksonville Center
11:46AM 30.3317 -81.1431 178° South 331 381 36,000  Level Jacksonville Center
11:47AM 30.2228 -81.1064 164° South 336 387 36,000  Level Jacksonville Center
11:48AM 30.1322 -81.0625 157° South 336 387 36,000  Level Jacksonville Center
11:49AM 30.0419 -81.0233 159° South 348 400 36,000  Level Jacksonville Center
11:50AM 29.9536 -80.9844 159° South 348 400 36,000  Level Jacksonville Center
11:51AM 29.8633 -80.9456 160° South 348 400 36,000  Level Jacksonville Center
11:52AM 29.7731 -80.9067 159° South 348 400 36,000  Level Jacksonville Center
11:53AM 29.6806 -80.8678 160° South 348 400 36,000  Level Jacksonville Center
11:54AM 29.5900 -80.8292 160° South 348 400 36,000  Level Jacksonville Center
11:55AM 29.4978 -80.7906 160° South 348 400 36,000  Level Jacksonville Center
11:56AM 29.4136 -80.7494 157° South 341 392 36,000  Level Jacksonville Center
11:57AM 29.3239 -80.7108 159° South 346 398 36,000  Level Miami Center
11:58AM 29.2333 -80.6700 159° South 347 399 36,000  Level Miami Center
11:59AM 29.1453 -80.6289 158° South 346 398 36,000  Level Miami Center
12:00PM 29.0564 -80.5875 158° South 345 397 36,000  Level Miami Center
12:01PM 28.9669 -80.5442 157° South 346 398 36,000  Level Miami Center
12:02PM 28.8608 -80.4939 157° South 344 396 36,000  Level Miami Center
12:03PM 28.7686 -80.4500 157° South 344 396 36,000  Level Miami Center
12:04PM 28.6758 -80.4061 157° South 342 394 36,000  Level Miami Center
12:05PM 28.5831 -80.3642 158° South 345 397 36,000  Level Miami Center
12:06PM 28.4914 -80.3214 158° South 343 395 36,000  Level Miami Center
12:07PM 28.4042 -80.2806 158° South 345 397 36,000 -300 Level Miami Center
12:08PM 28.3094 -80.2361 158° South 347 399 35,400 -1,020 Descending Miami Center
12:10PM 28.2103 -80.1892 157° South 370 426 34,000 -1,440 Descending Miami Center
12:11PM 28.1125 -80.1444 158° South 363 418 32,400 -960 Descending Miami Center
12:12PM 28.0125 -80.0986 158° South 369 425 32,000 -240 Descending Miami Center
12:13PM 27.9175 -80.0544 158° South 356 410 32,000 -840 Level Miami Center
12:14PM 27.8172 -80.0083 158° South 366 421 30,300 -1,800 Descending Miami Center
12:15PM 27.7181 -79.9644 159° South 380 437 28,300 -2,040 Descending Miami Center
12:16PM 27.6183 -79.9208 159° South 380 437 26,100 -1,920 Descending Miami Center
12:17PM 27.5217 -79.8842 161° South 371 427 24,400 -1,020 Descending Miami Center
12:18PM 27.4175 -79.8611 169° South 352 405 24,000 -720 Descending Miami Center
12:19PM 27.3194 -79.8364 167° South 347 399 23,000 -1,260 Descending Miami Center
12:20PM 27.2142 -79.8081 167° South 368 423 21,400 -1,680 Descending Miami Center
12:21PM 27.1086 -79.7800 167° South 371 427 19,600 -1,680 Descending Miami Center
12:22PM 27.0047 -79.7517 166° South 370 426 18,000 -1,560 Descending Miami Center
12:23PM 26.9000 -79.7242 167° South 369 425 16,400 -1,500 Descending Miami Center
12:24PM 26.7986 -79.6981 167° South 362 417 14,900 -960 Descending Miami Center
12:25PM 26.7064 -79.7053 184° South 338 389 14,500 -780 Descending Miami Center
12:25PM 26.6789 -79.7181 203° Southwest 330 380 13,900 -2,040 Descending Miami Center
12:26PM 26.6239 -79.7444 203° Southwest 321 369 12,400 -2,100 Descending Miami Center
12:26PM 26.5950 -79.7586 204° Southwest 314 361 11,800 -1,920 Descending Miami Center
12:27PM 26.5433 -79.7831 203° Southwest 315 362 10,400 -1,980 Descending Miami Center
12:27PM 26.5153 -79.7969 204° Southwest 313 360 9,800 -2,280 Descending Miami Center
12:28PM 26.4528 -79.8261 203° Southwest 304 350 8,100 -1,620 Descending Miami Center
12:29PM 26.4267 -79.8392 204° Southwest 290 334 8,000 -120 Descending Miami Center
12:29PM 26.3794 -79.8625 204° Southwest 285 328 8,000 -240 Level Miami Center
12:30PM 26.3572 -79.8828 219° Southwest 292 336 7,800 -960 Descending Miami Center
12:30PM 26.3147 -79.9250 222° Southwest 280 322 7,000 -720 Descending Miami Center
12:31PM 26.2925 -79.9478 223° Southwest 279 321 7,000  Level Miami Center
12:31PM 26.2606 -79.9861 227° Southwest 279 321 7,000  Level Miami Center
12:32PM 26.2403 -80.0158 233° Southwest 285 328 7,000 -120 Level Miami Center
12:32PM 26.2161 -80.0536 235° Southwest 280 322 6,900  Descending Miami Center
12:33PM 26.1939 -80.0867 233° Southwest 283 326 7,000 -600 Climbing Miami Center
12:33PM 26.1700 -80.1242 235° Southwest 281 323 6,300 -1,680 Descending Miami Center
12:34PM 26.1456 -80.1597 233° Southwest 278 320 5,300 -1,920 Descending Miami Center
12:34PM 26.1258 -80.1919 236° Southwest 270 311 4,300 -1,320 Descending Miami Center
12:35PM 26.0961 -80.2139 214° Southwest 259 298 4,000 -420 Descending Miami Center
12:35PM 26.0544 -80.2339 203° Southwest 234 269 3,900 -240 Descending Miami Center
12:36PM 26.0356 -80.2417 200° South 206 237 3,800 -1,080 Descending Miami Center
12:37PM 26.0075 -80.2594 210° Southwest 189 217 2,800 -1,680 Descending Miami Center
12:37PM 26.0003 -80.2714 236° Southwest 169 194 2,300 -900 Descending Miami Center
12:38PM 25.9825 -80.3025 238° Southwest 165 190 1,900 -480 Descending Miami Center
12:39PM 25.9467 -80.3239 208° Southwest 147 169 1,400 -720 Descending Miami Center
12:40PM 25.9214 -80.3075 150° Southeast 113 130 500 10,920 Descending Miami Center
12:41PM 25.9028 -80.2789 126° Southeast 103 119 24,000 22,740 Climbing Miami Center